createdAt,value
2018-05-12T00:01:54.518Z,97552
2018-05-12T00:04:22.770Z,97552
2018-05-12T00:06:50.896Z,97551
2018-05-12T00:09:19.856Z,97548
2018-05-12T00:11:48.025Z,97548
2018-05-12T00:14:16.199Z,97545
2018-05-12T00:16:44.370Z,97544
2018-05-12T00:19:12.577Z,97546
2018-05-12T00:21:41.529Z,97544
2018-05-12T00:24:09.708Z,97542
2018-05-12T00:26:37.889Z,97545
2018-05-12T00:29:06.064Z,97543
2018-05-12T00:31:34.246Z,97542
2018-05-12T00:34:02.417Z,97548
2018-05-12T00:36:30.591Z,97549
2018-05-12T00:38:58.774Z,97548
2018-05-12T00:41:26.985Z,97552
2018-05-12T00:43:55.923Z,97547
2018-05-12T00:46:24.125Z,97553
2018-05-12T00:48:52.301Z,97548
2018-05-12T00:51:20.475Z,97547
2018-05-12T00:53:48.661Z,97542
2018-05-12T00:56:16.837Z,97539
2018-05-12T00:58:45.780Z,97539
2018-05-12T01:01:13.978Z,97540
2018-05-12T01:03:42.148Z,97537
2018-05-12T01:06:10.325Z,97538
2018-05-12T01:08:38.505Z,97539
2018-05-12T01:11:06.672Z,97534
2018-05-12T01:13:34.930Z,97535
2018-05-12T01:16:03.045Z,97536
2018-05-12T01:18:31.230Z,97538
2018-05-12T01:21:00.173Z,97533
2018-05-12T01:23:28.355Z,97530
2018-05-12T01:25:56.524Z,97531
2018-05-12T01:28:24.721Z,97535
2018-05-12T01:30:52.906Z,97527
2018-05-12T01:33:21.080Z,97522
2018-05-12T01:35:49.282Z,97528
2018-05-12T01:38:18.281Z,97522
2018-05-12T01:40:47.262Z,97522
2018-05-12T01:43:16.204Z,97523
2018-05-12T01:45:44.373Z,97521
2018-05-12T01:48:12.561Z,97521
2018-05-12T01:50:40.740Z,97518
2018-05-12T01:53:08.920Z,97518
2018-05-12T01:55:37.097Z,97515
2018-05-12T01:58:05.273Z,97516
2018-05-12T02:00:33.486Z,97514
2018-05-12T02:03:02.420Z,97507
2018-05-12T02:05:30.590Z,97510
2018-05-12T02:07:58.788Z,97509
2018-05-12T02:10:26.956Z,97512
2018-05-12T02:12:55.129Z,97515
2018-05-12T02:15:23.310Z,97519
2018-05-12T02:17:51.485Z,97519
2018-05-12T02:20:19.668Z,97525
2018-05-12T02:22:47.849Z,97523
2018-05-12T02:25:16.027Z,97518
2018-05-12T02:27:44.233Z,97523
2018-05-12T02:30:12.417Z,97521
2018-05-12T02:32:40.590Z,97524
2018-05-12T02:35:08.809Z,97523
2018-05-12T02:37:36.983Z,97526
2018-05-12T02:40:05.162Z,97525
2018-05-12T02:42:33.349Z,97522
2018-05-12T02:45:01.536Z,97528
2018-05-12T02:47:30.520Z,97522
2018-05-12T02:49:58.696Z,97523
2018-05-12T03:38:19.448Z,97526
2018-05-12T03:40:47.627Z,97526
2018-05-12T03:43:15.801Z,97533
2018-05-12T03:45:43.968Z,97535
2018-05-12T03:48:12.162Z,97527
2018-05-12T03:50:40.339Z,97530
2018-05-12T03:53:08.506Z,97532
2018-05-12T03:55:36.683Z,97530
2018-05-12T03:58:04.854Z,97531
2018-05-12T04:00:33.031Z,97535
2018-05-12T04:03:01.208Z,97538
2018-05-12T04:05:47.208Z,97543
2018-05-12T04:08:34.013Z,97539
2018-05-12T04:11:19.865Z,97536
2018-05-12T04:13:48.803Z,97537
2018-05-12T04:16:17.004Z,97540
2018-05-12T04:18:45.181Z,97539
2018-05-12T04:21:13.344Z,97539
2018-05-12T04:23:41.542Z,97542
2018-05-12T04:26:09.722Z,97538
2018-05-12T04:28:38.680Z,97542
2018-05-12T04:31:06.862Z,97545
2018-05-12T04:33:35.037Z,97549
2018-05-12T04:36:03.238Z,97545
2018-05-12T04:38:32.183Z,97550
2018-05-12T04:41:00.360Z,97550
2018-05-12T04:43:28.536Z,97549
2018-05-12T04:45:56.716Z,97545
2018-05-12T04:48:24.890Z,97545
2018-05-12T04:50:53.062Z,97543
2018-05-12T04:53:21.233Z,97546
2018-05-12T04:55:49.409Z,97548
2018-05-12T04:58:17.600Z,97546
2018-05-12T05:00:45.813Z,97548
2018-05-12T05:03:14.755Z,97551
2018-05-12T05:05:42.925Z,97547
2018-05-12T05:08:11.113Z,97547
2018-05-12T05:10:39.308Z,97543
2018-05-12T05:13:07.498Z,97544
2018-05-12T05:15:36.444Z,97541
2018-05-12T05:18:04.628Z,97543
2018-05-12T05:20:32.832Z,97545
2018-05-12T05:23:01.022Z,97547
2018-05-12T05:25:29.965Z,97542
2018-05-12T05:27:58.144Z,97543
2018-05-12T05:30:26.313Z,97541
2018-05-12T05:32:54.492Z,97548
2018-05-12T05:35:22.660Z,97544
2018-05-12T05:37:50.836Z,97543
2018-05-12T05:40:19.200Z,97546
2018-05-12T05:42:47.386Z,97547
2018-05-12T05:45:15.560Z,97541
2018-05-12T05:47:43.740Z,97543
2018-05-12T05:50:11.961Z,97545
2018-05-12T05:52:40.128Z,97544
2018-05-12T05:55:09.076Z,97547
2018-05-12T05:57:37.256Z,97542
2018-05-12T06:00:05.437Z,97536
2018-05-12T06:02:33.694Z,97537
2018-05-12T06:05:01.875Z,97535
2018-05-12T06:07:30.060Z,97533
2018-05-12T06:09:58.271Z,97534
2018-05-12T06:12:27.209Z,97535
2018-05-12T06:14:55.393Z,97533
2018-05-12T06:17:23.564Z,97537
2018-05-12T06:19:51.757Z,97531
2018-05-12T06:22:19.933Z,97533
2018-05-12T06:24:48.108Z,97531
2018-05-12T06:27:16.281Z,97531
2018-05-12T06:29:44.454Z,97530
2018-05-12T06:32:12.624Z,97525
2018-05-12T06:34:40.908Z,97530
2018-05-12T06:37:09.788Z,97523
2018-05-12T06:39:37.959Z,97524
2018-05-12T06:42:06.125Z,97516
2018-05-12T06:44:34.301Z,97523
2018-05-12T06:47:02.497Z,97526
2018-05-12T06:49:30.665Z,97526
2018-05-12T06:51:58.843Z,97526
2018-05-12T06:54:27.016Z,97525
2018-05-12T06:56:55.181Z,97521
2018-05-12T06:59:23.357Z,97526
2018-05-12T07:01:51.531Z,97528
2018-05-12T07:04:19.705Z,97526
2018-05-12T07:06:47.882Z,97524
2018-05-12T07:09:16.068Z,97524
2018-05-12T07:11:44.247Z,97520
2018-05-12T07:14:12.412Z,97522
2018-05-12T07:16:40.591Z,97514
2018-05-12T07:19:08.763Z,97514
2018-05-12T07:21:36.933Z,97514
2018-05-12T07:24:05.114Z,97510
2018-05-12T07:26:33.281Z,97512
2018-05-12T07:29:01.465Z,97510
2018-05-12T07:31:29.632Z,97512
2018-05-12T07:33:57.818Z,97509
2018-05-12T07:36:26.025Z,97507
2018-05-12T07:38:54.984Z,97503
2018-05-12T07:41:23.191Z,97496
2018-05-12T07:43:52.125Z,97497
2018-05-12T07:46:20.298Z,97501
2018-05-12T07:48:48.524Z,97490
2018-05-12T07:51:16.699Z,97501
2018-05-12T07:53:44.875Z,97496
2018-05-12T07:56:13.825Z,97491
2018-05-12T07:58:42.000Z,97489
2018-05-12T08:01:10.173Z,97490
2018-05-12T08:03:38.339Z,97485
2018-05-12T08:06:06.519Z,97483
2018-05-12T08:08:34.685Z,97479
2018-05-12T08:11:02.860Z,97475
2018-05-12T08:13:31.030Z,97477
2018-05-12T08:15:59.207Z,97480
2018-05-12T08:18:27.385Z,97479
2018-05-12T08:20:55.548Z,97480
2018-05-12T08:23:23.728Z,97470
2018-05-12T08:25:51.908Z,97470
2018-05-12T08:28:20.079Z,97466
2018-05-12T08:30:48.243Z,97466
2018-05-12T08:33:16.430Z,97466
2018-05-12T08:35:44.612Z,97458
2018-05-12T08:38:12.768Z,97455
2018-05-12T08:40:40.938Z,97449
2018-05-12T08:43:09.125Z,97453
2018-05-12T08:45:37.297Z,97449
2018-05-12T08:48:05.457Z,97454
2018-05-12T08:50:33.626Z,97450
2018-05-12T08:53:02.554Z,97449
2018-05-12T08:55:30.727Z,97447
2018-05-12T08:57:58.894Z,97446
2018-05-12T09:00:27.051Z,97450
2018-05-12T09:02:55.224Z,97443
2018-05-12T09:05:23.390Z,97442
2018-05-12T09:07:51.556Z,97439
2018-05-12T09:10:20.493Z,97441
2018-05-12T09:12:48.713Z,97441
2018-05-12T09:15:17.659Z,97438
2018-05-12T09:17:45.823Z,97442
2018-05-12T09:20:13.997Z,97436
2018-05-12T09:22:42.169Z,97426
2018-05-12T09:25:10.336Z,97425
2018-05-12T09:27:38.501Z,97425
2018-05-12T09:30:06.682Z,97427
2018-05-12T09:32:34.857Z,97420
2018-05-12T09:35:03.038Z,97418
2018-05-12T09:37:31.211Z,97418
2018-05-12T09:39:59.393Z,97414
2018-05-12T09:42:27.601Z,97419
2018-05-12T09:44:55.822Z,97413
2018-05-12T09:47:23.952Z,97410
2018-05-12T09:49:52.135Z,97413
2018-05-12T09:52:20.343Z,97405
2018-05-12T09:54:48.491Z,97407
2018-05-12T09:57:16.672Z,97411
2018-05-12T09:59:45.821Z,97408
2018-05-12T10:02:13.985Z,97405
2018-05-12T10:04:42.149Z,97404
2018-05-12T10:07:10.320Z,97408
2018-05-12T10:09:38.503Z,97396
2018-05-12T10:12:06.686Z,97396
2018-05-12T10:14:34.843Z,97391
2018-05-12T10:17:03.012Z,97392
2018-05-12T10:19:31.268Z,97396
2018-05-12T10:21:59.382Z,97386
2018-05-12T10:24:27.572Z,97381
2018-05-12T10:26:55.825Z,97386
2018-05-12T10:29:23.952Z,97379
2018-05-12T10:31:52.126Z,97376
2018-05-12T10:34:20.302Z,97373
2018-05-12T10:36:48.483Z,97367
2018-05-12T10:39:16.661Z,97364
2018-05-12T10:41:45.611Z,97360
2018-05-12T10:44:13.797Z,97364
2018-05-12T10:46:42.022Z,97358
2018-05-12T10:49:10.973Z,97361
2018-05-12T10:51:39.149Z,97357
2018-05-12T10:54:07.330Z,97353
2018-05-12T10:56:35.504Z,97355
2018-05-12T10:59:03.677Z,97352
2018-05-12T11:01:31.851Z,97352
2018-05-12T11:04:00.028Z,97352
2018-05-12T11:06:28.219Z,97343
2018-05-12T11:08:57.156Z,97338
2018-05-12T11:11:25.340Z,97335
2018-05-12T11:13:53.517Z,97325
2018-05-12T11:16:21.687Z,97326
2018-05-12T11:18:49.864Z,97320
2018-05-12T11:21:18.049Z,97314
2018-05-12T11:23:46.229Z,97314
2018-05-12T11:26:14.408Z,97310
2018-05-12T11:28:42.594Z,97311
2018-05-12T11:31:10.780Z,97300
2018-05-12T11:33:39.736Z,97296
2018-05-12T11:36:08.698Z,97295
2018-05-12T11:38:36.946Z,97289
2018-05-12T11:41:05.115Z,97293
2018-05-12T11:43:33.289Z,97292
2018-05-12T11:46:01.465Z,97283
2018-05-12T11:48:30.418Z,97289
2018-05-12T11:50:58.596Z,97280
2018-05-12T11:53:26.777Z,97276
2018-05-12T11:55:54.948Z,97271
2018-05-12T11:58:23.216Z,97273
2018-05-12T12:00:51.328Z,97275
2018-05-12T12:03:19.509Z,97271
2018-05-12T12:05:48.458Z,97266
2018-05-12T12:08:16.632Z,97258
2018-05-12T12:10:44.818Z,97256
2018-05-12T12:13:12.993Z,97251
2018-05-12T12:15:41.172Z,97250
2018-05-12T12:18:09.380Z,97246
2018-05-12T12:20:38.324Z,97240
2018-05-12T12:23:06.499Z,97248
2018-05-12T12:25:34.673Z,97246
2018-05-12T12:28:02.846Z,97232
2018-05-12T12:30:31.021Z,97229
2018-05-12T12:32:59.199Z,97230
2018-05-12T12:35:27.386Z,97239
2018-05-12T12:37:55.560Z,97230
2018-05-12T12:40:23.738Z,97226
2018-05-12T12:42:51.928Z,97242
2018-05-12T12:45:20.098Z,97219
2018-05-12T12:47:48.277Z,97220
2018-05-12T12:50:16.461Z,97215
2018-05-12T12:52:45.412Z,97212
2018-05-12T12:55:13.593Z,97208
2018-05-12T12:57:41.784Z,97208
2018-05-12T13:00:09.964Z,97210
2018-05-12T13:02:38.152Z,97206
2018-05-12T13:05:07.111Z,97204
2018-05-12T13:07:35.316Z,97192
2018-05-12T13:10:03.489Z,97185
2018-05-12T13:12:31.674Z,97189
2018-05-12T13:15:00.606Z,97179
2018-05-12T13:17:28.779Z,97180
2018-05-12T13:19:56.968Z,97172
2018-05-12T13:22:25.157Z,97183
2018-05-12T13:24:53.333Z,97181
2018-05-12T13:27:21.517Z,97172
2018-05-12T13:29:49.689Z,97170
2018-05-12T13:32:17.956Z,97172
2018-05-12T13:34:46.825Z,97172
2018-05-12T13:37:15.007Z,97177
2018-05-12T13:39:43.174Z,97176
2018-05-12T13:42:11.345Z,97173
2018-05-12T13:44:39.528Z,97156
2018-05-12T13:47:07.703Z,97154
2018-05-12T13:49:35.877Z,97157
2018-05-12T13:52:04.102Z,97151
2018-05-12T13:54:33.049Z,97140
2018-05-12T13:57:01.226Z,97147
2018-05-12T13:59:29.395Z,97147
2018-05-12T14:01:57.573Z,97151
2018-05-12T14:04:25.782Z,97144
2018-05-12T14:06:53.959Z,97145
2018-05-12T14:09:22.138Z,97146
2018-05-12T14:11:51.087Z,97141
2018-05-12T14:14:19.260Z,97129
2018-05-12T14:16:47.440Z,97129
2018-05-12T14:19:15.613Z,97136
2018-05-12T14:21:43.793Z,97129
2018-05-12T14:24:11.978Z,97130
2018-05-12T14:26:40.169Z,97132
2018-05-12T14:29:08.353Z,97133
2018-05-12T14:31:37.297Z,97135
2018-05-12T14:34:05.465Z,97133
2018-05-12T14:36:33.648Z,97135
2018-05-12T14:39:01.827Z,97125
2018-05-12T14:41:29.998Z,97117
2018-05-12T14:43:58.209Z,97117
2018-05-12T14:46:26.395Z,97113
2018-05-12T14:48:55.345Z,97102
2018-05-12T14:51:23.520Z,97102
2018-05-12T14:53:51.701Z,97105
2018-05-12T14:56:19.882Z,97104
2018-05-12T14:58:48.057Z,97107
2018-05-12T15:01:16.229Z,97108
2018-05-12T15:03:44.422Z,97107
2018-05-12T15:06:12.607Z,97111
2018-05-12T15:08:41.551Z,97105
2018-05-12T15:11:09.730Z,97105
2018-05-12T15:13:37.908Z,97106
2018-05-12T15:16:06.090Z,97107
2018-05-12T15:18:34.317Z,97100
2018-05-12T15:21:03.277Z,97105
2018-05-12T15:23:31.463Z,97097
2018-05-12T15:26:00.407Z,97099
2018-05-12T15:28:28.604Z,97099
2018-05-12T15:30:56.784Z,97097
2018-05-12T15:33:24.959Z,97098
2018-05-12T15:35:53.136Z,97104
2018-05-12T15:38:21.318Z,97100
2018-05-12T15:40:49.489Z,97100
2018-05-12T15:43:17.653Z,97100
2018-05-12T15:45:45.820Z,97111
2018-05-12T15:48:13.988Z,97119
2018-05-12T15:50:42.152Z,97116
2018-05-12T15:53:10.324Z,97112
2018-05-12T15:55:38.488Z,97110
2018-05-12T15:58:06.655Z,97107
2018-05-12T16:00:34.821Z,97097
2018-05-12T16:03:03.781Z,97088
2018-05-12T16:05:31.981Z,97077
2018-05-12T16:08:00.928Z,97085
2018-05-12T16:10:29.097Z,97081
2018-05-12T16:12:57.284Z,97086
2018-05-12T16:15:25.488Z,97089
2018-05-12T16:17:54.426Z,97093
2018-05-12T16:20:22.646Z,97106
2018-05-12T16:22:50.813Z,97103
2018-05-12T16:25:19.200Z,97105
2018-05-12T16:27:47.372Z,97112
2018-05-12T16:30:15.554Z,97115
2018-05-12T16:32:44.498Z,97120
2018-05-12T16:35:12.694Z,97113
2018-05-12T16:37:40.868Z,97109
2018-05-12T16:40:09.042Z,97110
2018-05-12T16:42:37.227Z,97102
2018-05-12T16:45:05.398Z,97105
2018-05-12T16:47:33.612Z,97107
2018-05-12T16:50:02.557Z,97103
2018-05-12T16:52:30.741Z,97107
2018-05-12T16:54:58.917Z,97109
2018-05-12T16:57:27.129Z,97111
2018-05-12T16:59:56.064Z,97118
2018-05-12T17:02:24.239Z,97111
2018-05-12T17:04:52.441Z,97112
2018-05-12T17:07:20.637Z,97109
2018-05-12T17:09:49.581Z,97108
2018-05-12T17:12:17.804Z,97110
2018-05-12T17:14:46.751Z,97118
2018-05-12T17:17:14.926Z,97129
2018-05-12T17:19:43.119Z,97130
2018-05-12T17:22:11.312Z,97124
2018-05-12T17:24:39.576Z,97122
2018-05-12T17:27:08.487Z,97124
2018-05-12T17:29:37.435Z,97116
2018-05-12T17:32:05.613Z,97115
2018-05-12T17:34:34.594Z,97121
2018-05-12T17:37:02.785Z,97123
2018-05-12T17:39:30.970Z,97115
2018-05-12T17:41:59.153Z,97116
2018-05-12T17:44:27.334Z,97125
2018-05-12T17:46:55.511Z,97121
2018-05-12T17:49:23.685Z,97124
2018-05-12T17:51:51.869Z,97121
2018-05-12T17:54:20.808Z,97128
2018-05-12T17:56:48.980Z,97134
2018-05-12T17:59:17.140Z,97131
2018-05-12T18:01:45.322Z,97140
2018-05-12T18:04:13.500Z,97141
2018-05-12T18:06:41.683Z,97161
2018-05-12T18:09:09.870Z,97180
2018-05-12T18:11:38.152Z,97192
2018-05-12T18:14:06.254Z,97197
2018-05-12T18:16:34.433Z,97205
2018-05-12T18:19:03.372Z,97217
2018-05-12T18:21:31.563Z,97233
2018-05-12T18:23:59.781Z,97238
2018-05-12T18:26:28.721Z,97225
2018-05-12T18:28:56.902Z,97238
2018-05-12T18:31:25.127Z,97258
2018-05-12T18:33:54.066Z,97271
2018-05-12T18:36:22.243Z,97278
2018-05-12T18:38:50.417Z,97292
2018-05-12T18:41:18.606Z,97302
2018-05-12T18:43:46.828Z,97307
2018-05-12T18:46:15.079Z,97303
2018-05-12T18:48:43.221Z,97302
2018-05-12T18:51:11.402Z,97297
2018-05-12T18:53:39.568Z,97291
2018-05-12T18:56:07.766Z,97291
2018-05-12T18:58:35.953Z,97287
2018-05-12T19:01:04.131Z,97291
2018-05-12T19:03:33.073Z,97302
2018-05-12T19:06:01.248Z,97305
2018-05-12T19:08:29.444Z,97311
2018-05-12T19:10:57.618Z,97313
2018-05-12T19:13:26.574Z,97329
2018-05-12T19:15:54.756Z,97340
2018-05-12T19:18:22.929Z,97339
2018-05-12T19:20:51.104Z,97342
2018-05-12T19:23:19.285Z,97342
2018-05-12T19:25:47.472Z,97354
2018-05-12T19:28:15.659Z,97353
2018-05-12T19:30:43.844Z,97365
2018-05-12T19:33:12.022Z,97380
2018-05-12T19:35:40.200Z,97383
2018-05-12T19:38:08.377Z,97384
2018-05-12T19:40:36.561Z,97389
2018-05-12T19:43:05.503Z,97389
2018-05-12T19:45:33.721Z,97380
2018-05-12T19:48:01.894Z,97363
2018-05-12T19:50:30.069Z,97359
2018-05-12T19:52:58.270Z,97363
2018-05-12T19:55:26.490Z,97368
2018-05-12T19:57:54.839Z,97373
2018-05-12T20:00:23.042Z,97362
2018-05-12T20:02:51.214Z,97380
2018-05-12T20:05:19.390Z,97392
2018-05-12T20:07:47.582Z,97403
2018-05-12T20:10:15.753Z,97397
2018-05-12T20:12:43.930Z,97388
2018-05-12T20:15:12.116Z,97376
2018-05-12T20:17:40.295Z,97377
2018-05-12T20:20:08.474Z,97375
2018-05-12T20:22:36.656Z,97373
2018-05-12T20:25:05.592Z,97376
2018-05-12T20:27:33.772Z,97372
2018-05-12T20:30:01.961Z,97370
2018-05-12T20:32:30.135Z,97368
2018-05-12T20:34:58.323Z,97362
2018-05-12T20:37:26.564Z,97358
2018-05-12T20:39:54.738Z,97359
2018-05-12T20:42:22.917Z,97352
2018-05-12T20:44:51.101Z,97348
2018-05-12T20:47:19.274Z,97346
2018-05-12T20:49:47.453Z,97341
2018-05-12T20:52:15.625Z,97323
2018-05-12T20:54:43.849Z,97315
2018-05-12T20:57:12.796Z,97306
2018-05-12T20:59:40.973Z,97299
2018-05-12T21:02:09.182Z,97295
2018-05-12T21:04:38.135Z,97287
2018-05-12T21:07:06.314Z,97274
2018-05-12T21:09:34.492Z,97272
2018-05-12T21:12:02.688Z,97267
2018-05-12T21:14:30.862Z,97267
2018-05-12T21:17:00.213Z,97270
2018-05-12T21:19:28.402Z,97269
2018-05-12T21:21:56.581Z,97265
2018-05-12T21:24:24.753Z,97269
2018-05-12T21:26:52.940Z,97277
2018-05-12T21:29:21.145Z,97276
2018-05-12T21:31:49.298Z,97282
2018-05-12T21:34:17.472Z,97284
2018-05-12T21:36:45.657Z,97281
2018-05-12T21:39:13.856Z,97277
2018-05-12T21:41:42.795Z,97263
2018-05-12T21:44:10.961Z,97259
2018-05-12T21:46:39.137Z,97248
2018-05-12T21:49:07.306Z,97250
2018-05-12T21:51:35.481Z,97246
2018-05-12T21:54:03.654Z,97253
2018-05-12T21:56:31.821Z,97252
2018-05-12T21:59:00.072Z,97243
2018-05-12T22:01:28.186Z,97236
2018-05-12T22:03:56.362Z,97235
2018-05-12T22:06:24.537Z,97234
2018-05-12T22:08:52.719Z,97232
2018-05-12T22:11:20.927Z,97226
2018-05-12T22:13:49.104Z,97225
2018-05-12T22:16:17.282Z,97220
2018-05-12T22:18:45.455Z,97218
2018-05-12T22:21:13.630Z,97216
2018-05-12T22:23:42.573Z,97215
2018-05-12T22:26:10.772Z,97210
2018-05-12T22:28:38.970Z,97212
2018-05-12T22:31:07.146Z,97202
2018-05-12T22:33:35.338Z,97207
2018-05-12T22:36:04.274Z,97207
2018-05-12T22:38:32.440Z,97208
2018-05-12T22:41:00.625Z,97204
2018-05-12T22:43:28.799Z,97203
2018-05-12T22:45:56.976Z,97203
2018-05-12T22:48:25.147Z,97203
2018-05-12T22:50:53.321Z,97208
2018-05-12T22:53:21.505Z,97202
2018-05-12T22:55:49.676Z,97202
2018-05-12T22:58:17.848Z,97201
2018-05-12T23:00:46.033Z,97195
2018-05-12T23:03:14.205Z,97194
2018-05-12T23:05:42.448Z,97198
2018-05-12T23:08:10.634Z,97197
2018-05-12T23:10:38.809Z,97193
2018-05-12T23:13:06.984Z,97192
2018-05-12T23:15:35.158Z,97188
2018-05-12T23:18:03.361Z,97183
2018-05-12T23:20:31.529Z,97181
2018-05-12T23:22:59.699Z,97182
2018-05-12T23:25:27.873Z,97177
2018-05-12T23:27:56.083Z,97179
2018-05-12T23:30:25.055Z,97181
2018-05-12T23:32:53.229Z,97183
2018-05-12T23:35:21.422Z,97179
2018-05-12T23:37:49.605Z,97178
2018-05-12T23:40:18.544Z,97175
2018-05-12T23:42:46.819Z,97179
2018-05-12T23:45:15.005Z,97188
2018-05-12T23:47:43.177Z,97185
2018-05-12T23:50:11.382Z,97192
2018-05-12T23:52:39.582Z,97190
2018-05-12T23:55:08.683Z,97193
2018-05-12T23:57:37.611Z,97184
